Time;durP1;ratioP1;P1;durP2;ratioP2;P2;SDS_P1;SDS_P2;PMS_P1;PMS_P2;Temp;Humidity;BMP_temperature;BMP_pressure;BME280_temperature;BME280_humidity;BME280_pressure;Samples;Min_cycle;Max_cycle;Signal;HPM_P1;HPM_P2
2024/03/02 00:00:56;;;;;;;6.57;5.97;;;8.80;1.00;;;;;;5056869;28;20905;-78
2024/03/02 00:03:25;;;;;;;6.77;6.17;;;8.90;1.00;;;;;;5057400;28;20447;-79
2024/03/02 00:05:54;;;;;;;7.27;6.57;;;8.90;99.90;;;;;;5055332;28;20477;-80
2024/03/02 00:08:26;;;;;;;6.87;6.27;;;8.80;99.90;;;;;;5058281;28;20446;-78
2024/03/02 00:10:58;;;;;;;7.03;6.43;;;8.90;99.90;;;;;;5058168;28;20435;-80
2024/03/02 00:13:27;;;;;;;7.20;6.50;;;8.90;99.90;;;;;;5059729;28;20800;-80
2024/03/02 00:15:56;;;;;;;6.67;6.07;;;8.70;99.90;;;;;;5055851;28;20486;-80
2024/03/02 00:18:27;;;;;;;6.30;5.80;;;8.80;99.90;;;;;;5058147;28;20481;-80
2024/03/02 00:20:57;;;;;;;6.70;6.10;;;8.90;99.90;;;;;;5053884;28;20515;-80
2024/03/02 00:23:30;;;;;;;7.00;6.30;;;8.90;99.90;;;;;;5058739;28;20536;-81
2024/03/02 00:25:59;;;;;;;6.40;5.80;;;8.80;99.90;;;;;;5054986;28;20493;-83
2024/03/02 00:28:30;;;;;;;6.33;5.77;;;8.80;99.90;;;;;;5056010;28;20454;-81
2024/03/02 00:31:07;;;;;;;8.87;7.37;;;8.80;99.90;;;;;;5054838;28;20463;-80
2024/03/02 00:33:37;;;;;;;7.60;6.90;;;8.70;99.90;;;;;;5064087;28;20456;-82
2024/03/02 00:36:08;;;;;;;7.47;6.77;;;8.60;99.90;;;;;;5058684;28;20987;-81
2024/03/02 00:38:45;;;;;;;8.00;7.20;;;8.60;1.00;;;;;;5054836;28;20477;-83
2024/03/02 00:41:18;;;;;;;7.83;7.10;;;8.70;1.00;;;;;;5060869;28;20442;-81
2024/03/02 00:43:50;;;;;;;8.43;7.63;;;8.60;99.90;;;;;;5062156;28;20433;-80
2024/03/02 00:46:19;;;;;;;8.20;7.30;;;8.60;1.00;;;;;;5061776;28;20211;-82
2024/03/02 00:48:57;;;;;;;7.70;6.90;;;8.80;99.90;;;;;;5060323;28;20458;-82
2024/03/02 00:51:29;;;;;;;9.33;7.30;;;8.80;99.90;;;;;;5061261;28;20466;-80
2024/03/02 00:54:00;;;;;;;7.77;7.10;;;8.70;99.90;;;;;;5063274;28;20988;-80
2024/03/02 00:56:29;;;;;;;7.50;6.80;;;8.70;99.90;;;;;;5059426;28;20476;-81
2024/03/02 00:58:57;;;;;;;7.30;6.57;;;8.70;99.90;;;;;;5057415;28;20980;-82
2024/03/02 01:01:25;;;;;;;8.63;7.20;;;8.70;1.00;;;;;;5055615;28;20535;-80
2024/03/02 01:03:54;;;;;;;9.30;8.07;;;8.70;1.00;;;;;;5054423;28;20538;-82
2024/03/02 01:06:23;;;;;;;10.93;8.13;;;8.80;1.00;;;;;;5056780;28;20479;-82
2024/03/02 01:08:52;;;;;;;9.30;8.40;;;8.90;1.00;;;;;;5057637;28;20449;-81
2024/03/02 01:11:21;;;;;;;8.33;7.53;;;8.80;1.00;;;;;;5060657;28;20461;-82
2024/03/02 01:13:51;;;;;;;10.53;8.10;;;8.80;1.00;;;;;;5053374;28;20487;-82
2024/03/02 01:16:20;;;;;;;16.57;8.00;;;8.80;1.00;;;;;;5060097;28;20483;-79
2024/03/02 01:18:48;;;;;;;10.00;8.33;;;8.80;1.00;;;;;;5056633;28;20461;-79
2024/03/02 01:21:17;;;;;;;9.33;8.47;;;8.90;1.00;;;;;;5054305;28;20543;-79
2024/03/02 01:23:45;;;;;;;10.03;8.53;;;8.90;1.00;;;;;;5056025;28;20450;-78
2024/03/02 01:26:15;;;;;;;10.33;8.13;;;9.00;1.00;;;;;;5062615;28;20554;-81
2024/03/02 01:28:43;;;;;;;9.00;7.97;;;9.00;1.00;;;;;;5063877;28;20455;-83
2024/03/02 01:31:12;;;;;;;8.90;7.60;;;8.90;1.00;;;;;;5056665;28;20542;-79
2024/03/02 01:33:41;;;;;;;9.87;8.10;;;8.90;1.00;;;;;;5061143;28;20519;-83
2024/03/02 01:36:09;;;;;;;8.30;7.60;;;8.80;1.00;;;;;;5066874;28;21202;-80
2024/03/02 01:38:37;;;;;;;9.17;7.93;;;8.80;1.00;;;;;;5064544;28;20501;-80
2024/03/02 01:41:05;;;;;;;10.10;8.40;;;8.70;1.00;;;;;;5069765;28;20628;-80
2024/03/02 01:43:35;;;;;;;8.93;8.03;;;8.70;1.00;;;;;;5065356;28;20466;-80
2024/03/02 01:46:09;;;;;;;10.43;9.00;;;8.60;1.00;;;;;;5065892;28;20480;-83
2024/03/02 01:48:37;;;;;;;10.23;9.17;;;8.50;1.00;;;;;;5063214;28;20459;-81
2024/03/02 01:51:06;;;;;;;9.30;8.30;;;8.50;1.00;;;;;;5062492;28;20498;-82
2024/03/02 01:53:35;;;;;;;10.57;9.47;;;8.60;1.00;;;;;;5068932;28;20438;-82
2024/03/02 01:56:03;;;;;;;8.60;7.67;;;8.60;1.00;;;;;;5065064;28;20471;-82
2024/03/02 01:58:32;;;;;;;11.27;9.07;;;8.60;1.00;;;;;;5063140;28;20466;-82
2024/03/02 02:01:01;;;;;;;9.87;8.87;;;8.60;1.00;;;;;;5057617;28;20462;-80
2024/03/02 02:03:30;;;;;;;9.53;8.40;;;8.60;1.00;;;;;;5067270;28;20458;-80
2024/03/02 02:05:58;;;;;;;12.30;9.10;;;8.60;1.00;;;;;;5061160;28;20482;-81
2024/03/02 02:08:27;;;;;;;10.23;9.10;;;8.70;1.00;;;;;;5077808;28;20446;-82
2024/03/02 02:10:55;;;;;;;12.00;9.03;;;8.70;1.00;;;;;;5065754;28;20430;-81
2024/03/02 02:13:24;;;;;;;10.00;8.17;;;8.70;1.00;;;;;;5063758;28;20535;-80
2024/03/02 02:15:52;;;;;;;11.90;9.57;;;8.70;1.00;;;;;;5066975;28;20466;-81
2024/03/02 02:18:23;;;;;;;11.27;10.20;;;8.60;1.00;;;;;;5064500;28;20451;-82
2024/03/02 02:20:51;;;;;;;10.60;8.30;;;8.60;1.00;;;;;;5065145;28;20459;-80
2024/03/02 02:23:21;;;;;;;10.87;8.00;;;8.60;1.00;;;;;;5064309;28;20461;-80
2024/03/02 02:25:49;;;;;;;9.80;8.77;;;8.60;1.00;;;;;;5064999;28;20511;-81
2024/03/02 02:28:17;;;;;;;11.90;9.50;;;8.60;1.00;;;;;;5067751;28;20451;-80
2024/03/02 02:30:45;;;;;;;13.67;10.13;;;8.50;1.00;;;;;;5065058;28;20439;-81
2024/03/02 02:33:13;;;;;;;9.67;8.30;;;8.40;1.00;;;;;;5057817;28;20958;-81
2024/03/02 02:35:42;;;;;;;9.60;8.50;;;8.50;1.00;;;;;;5058712;28;20477;-82
2024/03/02 02:38:10;;;;;;;14.53;10.80;;;8.60;1.00;;;;;;5065159;28;20470;-81
2024/03/02 02:40:39;;;;;;;10.60;9.10;;;8.60;1.00;;;;;;5062459;28;20457;-80
2024/03/02 02:43:08;;;;;;;9.73;8.73;;;8.50;1.00;;;;;;5064287;28;20449;-84
2024/03/02 02:45:36;;;;;;;10.00;9.00;;;8.40;1.00;;;;;;5066900;28;20481;-81
2024/03/02 02:48:05;;;;;;;9.93;8.37;;;8.40;1.00;;;;;;5068525;28;20441;-80
2024/03/02 02:50:34;;;;;;;10.03;8.40;;;8.40;1.00;;;;;;5063777;28;20826;-82
2024/03/02 02:53:02;;;;;;;9.07;8.17;;;8.30;1.00;;;;;;5059084;28;20489;-84
2024/03/02 02:55:30;;;;;;;9.80;8.63;;;8.40;1.00;;;;;;5061294;28;20804;-83
2024/03/02 02:58:00;;;;;;;10.57;8.87;;;8.40;1.00;;;;;;5058695;28;20505;-80
2024/03/02 03:00:28;;;;;;;9.63;8.07;;;8.40;1.00;;;;;;5058835;28;20502;-84
2024/03/02 03:02:56;;;;;;;8.10;7.30;;;8.40;1.00;;;;;;5063548;28;20445;-83
2024/03/02 03:05:25;;;;;;;9.57;8.53;;;8.40;1.00;;;;;;5061335;28;20473;-82
2024/03/02 03:07:53;;;;;;;10.20;8.73;;;8.30;1.00;;;;;;5062198;28;20430;-82
2024/03/02 03:10:23;;;;;;;11.03;8.67;;;8.30;1.00;;;;;;5062687;28;20459;-82
2024/03/02 03:12:51;;;;;;;9.83;8.93;;;8.20;1.00;;;;;;5060619;28;20447;-80
2024/03/02 03:15:21;;;;;;;9.87;8.50;;;8.20;1.00;;;;;;5062476;28;20478;-80
2024/03/02 03:17:50;;;;;;;9.73;8.83;;;8.20;1.00;;;;;;5059935;28;20481;-78
2024/03/02 03:20:21;;;;;;;9.50;8.50;;;8.10;1.00;;;;;;5058710;28;20545;-83
2024/03/02 03:22:49;;;;;;;12.00;8.87;;;8.20;1.00;;;;;;5056049;28;20450;-80
2024/03/02 03:25:18;;;;;;;11.67;8.97;;;8.20;1.00;;;;;;5056617;28;20536;-80
2024/03/02 03:27:46;;;;;;;10.63;8.30;;;8.20;1.00;;;;;;5062362;28;20444;-81
2024/03/02 03:30:15;;;;;;;8.90;8.03;;;8.20;1.00;;;;;;5060127;28;20493;-82
2024/03/02 03:32:45;;;;;;;9.97;8.97;;;8.20;1.00;;;;;;5059189;28;20455;-83
2024/03/02 03:35:14;;;;;;;9.40;7.97;;;8.20;1.00;;;;;;5065922;28;20466;-79
2024/03/02 03:37:42;;;;;;;8.37;7.47;;;8.20;1.00;;;;;;5063611;28;20548;-82
2024/03/02 03:40:11;;;;;;;8.57;7.67;;;8.20;1.00;;;;;;5056947;28;20460;-82
2024/03/02 03:42:40;;;;;;;9.90;8.50;;;8.20;1.00;;;;;;5054066;28;20494;-80
2024/03/02 03:45:09;;;;;;;11.37;8.53;;;8.20;1.00;;;;;;5059186;28;20562;-82
2024/03/02 03:47:37;;;;;;;10.10;7.53;;;8.30;1.00;;;;;;5062237;28;20448;-80
2024/03/02 03:50:08;;;;;;;8.37;7.50;;;8.30;1.00;;;;;;5059151;28;20508;-80
2024/03/02 03:52:36;;;;;;;8.37;7.57;;;8.30;1.00;;;;;;5063325;28;20450;-80
2024/03/02 03:55:05;;;;;;;10.40;8.03;;;8.20;1.00;;;;;;5060132;28;20477;-81
2024/03/02 03:57:34;;;;;;;10.17;8.57;;;8.20;1.00;;;;;;5056498;28;20470;-81
2024/03/02 04:00:03;;;;;;;9.40;8.50;;;8.20;1.00;;;;;;5065582;28;20442;-81
2024/03/02 04:02:32;;;;;;;10.93;9.83;;;8.20;1.00;;;;;;5058633;28;21047;-82
2024/03/02 04:05:00;;;;;;;9.07;7.87;;;8.20;1.00;;;;;;5056726;28;20472;-86
2024/03/02 04:07:30;;;;;;;9.37;8.37;;;8.20;1.00;;;;;;5062594;28;20449;-83
2024/03/02 04:09:58;;;;;;;8.47;7.77;;;8.20;1.00;;;;;;5059618;28;20442;-84
2024/03/02 04:12:26;;;;;;;8.37;7.47;;;8.20;1.00;;;;;;5064367;28;20452;-83
2024/03/02 04:14:54;;;;;;;8.10;7.30;;;8.10;1.00;;;;;;5059781;28;20471;-84
2024/03/02 04:17:22;;;;;;;7.80;7.20;;;8.10;1.00;;;;;;5060621;28;21021;-84
2024/03/02 04:19:51;;;;;;;8.03;7.23;;;8.20;1.00;;;;;;5059970;28;20478;-82
2024/03/02 04:22:19;;;;;;;8.93;7.10;;;8.10;1.00;;;;;;5057648;28;20528;-82
2024/03/02 04:24:54;;;;;;;7.90;7.03;;;8.10;1.00;;;;;;5057138;28;20482;-79
2024/03/02 04:27:22;;;;;;;7.77;7.07;;;8.10;1.00;;;;;;5062135;28;20445;-81
2024/03/02 04:29:50;;;;;;;8.63;7.83;;;8.10;1.00;;;;;;5058984;28;20446;-81
2024/03/02 04:32:19;;;;;;;8.10;7.50;;;8.10;1.00;;;;;;5063170;28;20440;-82
2024/03/02 04:34:48;;;;;;;8.57;7.77;;;8.00;1.00;;;;;;5064382;28;20479;-82
2024/03/02 04:37:16;;;;;;;9.13;8.23;;;7.90;1.00;;;;;;5059905;28;20479;-83
2024/03/02 04:39:44;;;;;;;11.10;7.70;;;7.80;1.00;;;;;;5058469;28;20466;-84
2024/03/02 04:42:14;;;;;;;8.90;8.10;;;7.60;1.00;;;;;;5063267;28;20493;-82
2024/03/02 04:44:42;;;;;;;8.53;7.63;;;7.70;1.00;;;;;;5056762;28;20447;-83
2024/03/02 04:47:10;;;;;;;8.63;7.50;;;7.90;1.00;;;;;;5057798;28;20478;-81
2024/03/02 04:49:38;;;;;;;11.00;8.60;;;7.90;1.00;;;;;;5060744;28;20469;-82
2024/03/02 04:52:07;;;;;;;9.43;8.07;;;8.00;1.00;;;;;;5060656;28;20451;-81
2024/03/02 04:55:09;;;;;;;8.83;7.93;;;8.00;1.00;;;;;;5061223;28;20510;-79
2024/03/02 04:57:24;;;;;;;8.77;7.00;;;8.00;1.00;;;;;;5058915;28;20461;-80
2024/03/02 04:59:52;;;;;;;8.23;7.57;;;7.90;1.00;;;;;;5057362;28;20464;-81
2024/03/02 05:02:20;;;;;;;8.20;7.13;;;7.90;1.00;;;;;;5059336;28;20508;-84
2024/03/02 05:04:49;;;;;;;7.70;6.87;;;8.00;1.00;;;;;;5061436;28;20927;-82
2024/03/02 05:07:17;;;;;;;8.23;7.37;;;8.00;1.00;;;;;;5061673;28;20462;-79
2024/03/02 05:09:45;;;;;;;9.40;8.30;;;8.00;1.00;;;;;;5059493;28;20966;-80
2024/03/02 05:12:35;;;;;;;8.27;7.50;;;8.00;1.00;;;;;;5066195;28;20536;-79
2024/03/02 05:15:05;;;;;;;8.33;7.47;;;8.00;1.00;;;;;;5062311;28;20567;-82
2024/03/02 05:17:33;;;;;;;7.40;6.80;;;8.00;1.00;;;;;;5059612;28;20529;-79
2024/03/02 05:20:02;;;;;;;8.57;7.77;;;8.00;1.00;;;;;;5059909;28;20455;-81
2024/03/02 05:22:30;;;;;;;8.90;7.13;;;7.90;1.00;;;;;;5057941;28;20478;-80
2024/03/02 05:25:00;;;;;;;8.20;7.30;;;8.00;1.00;;;;;;5059975;28;20565;-83
2024/03/02 05:27:28;;;;;;;7.63;6.43;;;8.10;1.00;;;;;;5058996;28;20491;-83
2024/03/02 05:29:58;;;;;;;9.10;7.87;;;8.00;1.00;;;;;;5066903;28;20444;-83
2024/03/02 05:32:27;;;;;;;7.63;6.93;;;8.10;1.00;;;;;;5056165;28;21220;-81
2024/03/02 05:34:55;;;;;;;8.93;7.17;;;8.10;1.00;;;;;;5062602;28;20467;-81
2024/03/02 05:37:24;;;;;;;8.60;7.70;;;8.10;1.00;;;;;;5059006;28;20538;-82
2024/03/02 05:39:52;;;;;;;8.90;7.80;;;8.20;1.00;;;;;;5056982;28;20478;-80
2024/03/02 05:42:20;;;;;;;8.87;7.97;;;8.10;1.00;;;;;;5053604;28;20449;-81
2024/03/02 05:44:48;;;;;;;9.40;7.70;;;8.00;1.00;;;;;;5054660;28;20492;-79
2024/03/02 05:47:17;;;;;;;8.23;7.40;;;7.90;1.00;;;;;;5057182;28;20470;-83
2024/03/02 05:49:46;;;;;;;8.53;7.60;;;7.90;1.00;;;;;;5056524;28;20504;-81
2024/03/02 05:52:15;;;;;;;8.77;7.87;;;7.90;1.00;;;;;;5058450;28;20481;-80
2024/03/02 05:54:43;;;;;;;9.73;7.57;;;7.90;1.00;;;;;;5056386;28;20449;-80
2024/03/02 05:57:31;;;;;;;9.50;7.63;;;7.90;1.00;;;;;;5067823;28;20446;-83
2024/03/02 06:00:00;;;;;;;8.60;7.80;;;8.00;1.00;;;;;;5057952;28;20467;-79
2024/03/02 06:02:28;;;;;;;8.30;7.43;;;8.00;1.00;;;;;;5053746;28;20544;-80
2024/03/02 06:04:57;;;;;;;10.40;7.83;;;8.00;1.00;;;;;;5057170;28;20568;-83
2024/03/02 06:07:26;;;;;;;9.33;7.67;;;8.00;1.00;;;;;;5056760;28;20458;-81
2024/03/02 06:09:54;;;;;;;9.53;8.57;;;8.00;1.00;;;;;;5059767;28;20986;-82
2024/03/02 06:12:22;;;;;;;9.47;7.30;;;8.00;1.00;;;;;;5060021;28;20458;-82
2024/03/02 06:14:51;;;;;;;8.70;7.40;;;8.10;1.00;;;;;;5060150;28;20564;-81
2024/03/02 06:17:19;;;;;;;11.30;8.07;;;8.00;1.00;;;;;;5059738;28;20532;-79
2024/03/02 06:19:48;;;;;;;8.73;7.87;;;8.10;1.00;;;;;;5062330;28;20483;-82
2024/03/02 06:22:19;;;;;;;8.40;7.57;;;8.10;1.00;;;;;;5065084;28;20566;-81
2024/03/02 06:24:47;;;;;;;9.63;7.70;;;8.10;1.00;;;;;;5065772;28;20520;-80
2024/03/02 06:27:15;;;;;;;9.43;7.93;;;8.10;1.00;;;;;;5063953;28;20486;-80
2024/03/02 06:29:43;;;;;;;8.13;7.40;;;8.10;1.00;;;;;;5062060;28;21010;-79
2024/03/02 06:32:11;;;;;;;11.00;7.30;;;8.10;1.00;;;;;;5063783;28;20983;-80
2024/03/02 06:34:39;;;;;;;11.57;9.67;;;8.10;1.00;;;;;;5066166;28;20485;-79
2024/03/02 06:37:07;;;;;;;9.67;8.87;;;8.10;1.00;;;;;;5057356;28;20438;-78
2024/03/02 06:39:36;;;;;;;10.87;9.77;;;8.10;1.00;;;;;;5065064;28;20596;-79
2024/03/02 06:42:05;;;;;;;9.30;8.40;;;8.10;1.00;;;;;;5060552;28;20481;-83
2024/03/02 06:44:35;;;;;;;9.87;8.97;;;8.10;1.00;;;;;;5061083;28;20455;-80
2024/03/02 06:47:04;;;;;;;9.10;8.30;;;8.00;1.00;;;;;;5061122;28;20558;-82
2024/03/02 06:49:32;;;;;;;11.73;8.53;;;8.10;1.00;;;;;;5057251;28;20457;-78
2024/03/02 06:52:00;;;;;;;9.40;8.40;;;8.00;1.00;;;;;;5056810;28;20952;-81
2024/03/02 06:54:28;;;;;;;9.90;7.83;;;8.00;1.00;;;;;;5056849;28;20458;-76
2024/03/02 06:56:58;;;;;;;9.27;8.33;;;8.10;1.00;;;;;;5056369;28;20455;-79
2024/03/02 06:59:26;;;;;;;10.77;9.00;;;8.10;1.00;;;;;;5059339;28;20564;-80
2024/03/02 07:01:54;;;;;;;8.73;7.90;;;8.30;1.00;;;;;;5064968;28;20465;-81
2024/03/02 07:04:22;;;;;;;9.10;8.27;;;8.30;1.00;;;;;;5061894;28;20537;-78
2024/03/02 07:06:50;;;;;;;10.37;8.37;;;8.30;1.00;;;;;;5062812;28;20544;-78
2024/03/02 07:09:22;;;;;;;10.63;9.30;;;8.30;1.00;;;;;;5059855;28;20446;-80
2024/03/02 07:11:50;;;;;;;9.20;8.30;;;8.30;1.00;;;;;;5061639;28;20547;-78
2024/03/02 07:14:22;;;;;;;10.57;9.57;;;8.30;1.00;;;;;;5059979;28;20484;-80
2024/03/02 07:16:50;;;;;;;9.83;8.83;;;8.30;1.00;;;;;;5053074;28;20473;-80
2024/03/02 07:19:18;;;;;;;8.90;8.00;;;8.40;1.00;;;;;;5054592;28;20484;-78
2024/03/02 07:21:46;;;;;;;9.87;7.93;;;8.40;1.00;;;;;;5058594;28;20456;-79
2024/03/02 07:24:16;;;;;;;8.53;7.70;;;8.40;1.00;;;;;;5056662;28;20536;-77
2024/03/02 07:26:44;;;;;;;9.80;8.80;;;8.40;1.00;;;;;;5063363;28;20831;-78
2024/03/02 07:29:15;;;;;;;11.77;8.00;;;8.50;1.00;;;;;;5060211;28;20458;-79
2024/03/02 07:31:45;;;;;;;11.45;9.50;;;8.50;1.00;;;;;;5060071;28;20443;-78
2024/03/02 07:34:13;;;;;;;10.10;8.53;;;8.50;1.00;;;;;;5061436;28;20197;-79
2024/03/02 07:36:41;;;;;;;9.27;7.70;;;8.50;1.00;;;;;;5060267;28;21057;-80
2024/03/02 07:39:10;;;;;;;7.90;7.10;;;8.50;1.00;;;;;;5057645;28;21103;-78
2024/03/02 07:41:38;;;;;;;9.83;8.43;;;8.60;1.00;;;;;;5062291;28;20440;-81
2024/03/02 07:44:07;;;;;;;7.83;7.10;;;8.60;1.00;;;;;;5057956;28;20869;-81
2024/03/02 07:46:35;;;;;;;12.83;7.33;;;8.60;1.00;;;;;;5064178;28;20471;-78
2024/03/02 07:49:05;;;;;;;9.67;7.93;;;8.60;99.90;;;;;;5059198;28;20451;-79
2024/03/02 07:51:33;;;;;;;8.73;6.43;;;8.70;99.90;;;;;;5057124;28;20810;-85
2024/03/02 07:54:01;;;;;;;11.37;10.37;;;8.70;99.90;;;;;;5060353;28;20446;-82
2024/03/02 07:56:29;;;;;;;10.10;9.10;;;8.80;99.90;;;;;;5060374;28;20565;-79
2024/03/02 07:59:00;;;;;;;8.57;7.40;;;8.90;99.90;;;;;;5059005;28;20514;-78
2024/03/02 08:01:30;;;;;;;7.57;6.87;;;8.80;99.90;;;;;;5058270;28;20458;-80
2024/03/02 08:03:58;;;;;;;8.87;7.43;;;8.90;99.90;;;;;;5059196;28;20866;-78
2024/03/02 08:06:28;;;;;;;8.23;7.23;;;9.10;99.90;;;;;;5058832;28;20959;-79
2024/03/02 08:08:57;;;;;;;8.60;7.10;;;9.30;99.90;;;;;;5056064;28;20465;-78
2024/03/02 08:11:27;;;;;;;8.30;7.70;;;9.60;99.90;;;;;;5055794;28;20541;-80
2024/03/02 08:13:55;;;;;;;8.13;7.33;;;9.80;99.90;;;;;;5060557;28;20902;-79
2024/03/02 08:16:25;;;;;;;8.07;7.30;;;9.90;99.90;;;;;;5057219;28;20505;-80
2024/03/02 08:18:53;;;;;;;7.17;6.40;;;10.10;99.90;;;;;;5063832;28;20451;-79
2024/03/02 08:21:22;;;;;;;7.97;6.40;;;10.60;99.90;;;;;;5062673;28;20484;-79
2024/03/02 08:23:52;;;;;;;7.17;6.47;;;10.80;99.90;;;;;;5061786;28;20864;-78
2024/03/02 08:26:20;;;;;;;7.70;6.90;;;11.20;99.90;;;;;;5059245;28;20568;-79
2024/03/02 08:28:48;;;;;;;7.33;6.73;;;11.50;99.90;;;;;;5058884;28;20525;-80
2024/03/02 08:31:16;;;;;;;6.30;5.70;;;11.90;99.90;;;;;;5059753;28;20462;-79
2024/03/02 08:33:44;;;;;;;6.70;6.17;;;12.40;99.90;;;;;;5059882;28;20550;-77
2024/03/02 08:36:13;;;;;;;6.83;6.20;;;12.70;99.90;;;;;;5059685;28;20455;-78
2024/03/02 08:38:41;;;;;;;6.57;5.90;;;13.00;99.90;;;;;;5061090;28;20454;-78
2024/03/02 08:41:13;;;;;;;6.10;5.60;;;13.40;99.90;;;;;;5055644;28;20484;-80
2024/03/02 08:43:42;;;;;;;5.90;5.40;;;13.90;99.90;;;;;;5047636;28;20476;-79
2024/03/02 08:46:10;;;;;;;6.90;6.30;;;14.20;99.90;;;;;;5054829;28;20469;-79
2024/03/02 08:48:39;;;;;;;6.82;6.32;;;14.60;99.90;;;;;;5047485;28;20490;-83
2024/03/02 08:51:08;;;;;;;5.27;4.83;;;15.10;99.90;;;;;;5054072;28;20220;-80
2024/03/02 08:53:37;;;;;;;5.57;5.13;;;15.50;99.90;;;;;;5054423;28;20474;-82
2024/03/02 08:56:06;;;;;;;5.20;4.80;;;15.40;99.90;;;;;;5054568;28;20465;-80
2024/03/02 08:58:35;;;;;;;5.27;4.80;;;15.20;99.90;;;;;;5055175;28;20453;-83
2024/03/02 09:01:04;;;;;;;6.43;5.77;;;15.10;99.90;;;;;;5057522;28;20871;-80
2024/03/02 09:03:33;;;;;;;5.23;4.83;;;15.10;99.90;;;;;;5054203;28;20467;-81
2024/03/02 09:06:02;;;;;;;5.17;4.67;;;15.10;99.90;;;;;;5058559;28;20536;-78
2024/03/02 09:08:30;;;;;;;5.33;4.93;;;15.50;99.90;;;;;;5057926;28;20473;-81
2024/03/02 09:10:58;;;;;;;5.37;4.87;;;16.70;99.90;;;;;;5058856;28;20460;-79
2024/03/02 09:13:26;;;;;;;5.67;5.17;;;17.70;99.90;;;;;;5056142;28;20539;-80
2024/03/02 09:15:56;;;;;;;5.53;5.07;;;18.60;99.90;;;;;;5055535;28;20903;-79
2024/03/02 09:18:24;;;;;;;4.53;4.23;;;19.10;99.90;;;;;;5057998;28;20450;-81
2024/03/02 09:20:52;;;;;;;5.70;5.20;;;19.40;99.90;;;;;;5056634;28;20727;-81
2024/03/02 09:23:21;;;;;;;6.40;5.90;;;20.20;99.90;;;;;;5056068;28;20982;-78
2024/03/02 09:25:49;;;;;;;5.70;4.90;;;20.70;99.90;;;;;;5057098;28;20486;-78
2024/03/02 09:28:18;;;;;;;4.83;4.43;;;20.80;99.90;;;;;;5055228;28;20446;-79
2024/03/02 09:30:46;;;;;;;5.90;5.27;;;20.90;99.90;;;;;;5052811;28;20475;-79
2024/03/02 09:33:16;;;;;;;4.37;4.07;;;21.20;99.90;;;;;;5058242;28;20511;-80
2024/03/02 09:35:45;;;;;;;6.07;4.63;;;21.80;99.90;;;;;;5054436;28;20473;-78
2024/03/02 09:38:13;;;;;;;3.83;3.60;;;22.00;99.90;;;;;;5056971;28;21064;-79
2024/03/02 09:40:42;;;;;;;3.67;3.37;;;22.20;99.90;;;;;;5057059;28;20490;-80
2024/03/02 09:43:11;;;;;;;3.80;3.60;;;22.50;99.90;;;;;;5054268;28;20450;-79
2024/03/02 09:45:39;;;;;;;3.90;3.60;;;22.70;99.90;;;;;;5053718;28;21001;-79
2024/03/02 09:48:08;;;;;;;4.90;3.87;;;23.20;99.90;;;;;;5054098;28;20878;-80
2024/03/02 09:50:38;;;;;;;3.03;2.83;;;23.30;99.90;;;;;;5056374;28;20975;-81
2024/03/02 09:53:08;;;;;;;3.43;3.23;;;23.70;99.90;;;;;;5053757;28;20456;-80
2024/03/02 09:55:36;;;;;;;3.00;2.80;;;23.90;99.90;;;;;;5059287;28;20554;-79
2024/03/02 09:58:05;;;;;;;4.40;4.00;;;24.00;99.90;;;;;;5060034;28;20446;-80
2024/03/02 10:00:33;;;;;;;3.50;3.30;;;24.40;99.90;;;;;;5059346;28;20463;-79
2024/03/02 10:03:02;;;;;;;3.10;2.83;;;23.80;99.90;;;;;;5060184;28;20911;-80
2024/03/02 10:05:30;;;;;;;3.53;2.77;;;23.60;99.90;;;;;;5059767;28;20462;-81
2024/03/02 10:08:03;;;;;;;2.87;2.70;;;23.40;99.90;;;;;;5063014;28;20435;-80
2024/03/02 10:10:42;;;;;;;2.90;2.27;;;23.00;99.90;;;;;;5058335;28;20518;-79
2024/03/02 10:13:12;;;;;;;2.20;2.10;;;22.70;99.90;;;;;;5059637;28;20459;-80
2024/03/02 10:15:42;;;;;;;2.30;2.10;;;22.00;99.90;;;;;;5060632;28;20466;-78
2024/03/02 10:18:12;;;;;;;2.20;2.10;;;22.10;99.90;;;;;;5056464;28;20458;-79
2024/03/02 10:20:41;;;;;;;2.10;2.00;;;22.00;99.90;;;;;;5056117;28;20522;-78
2024/03/02 10:23:16;;;;;;;2.10;2.00;;;22.30;99.90;;;;;;5062067;28;20447;-80
2024/03/02 10:25:45;;;;;;;2.00;1.90;;;22.70;99.90;;;;;;5057333;28;20498;-80
2024/03/02 10:28:24;;;;;;;1.80;1.70;;;23.30;99.90;;;;;;5052524;28;20463;-79
2024/03/02 10:30:53;;;;;;;2.27;2.07;;;23.80;99.90;;;;;;5054452;28;20440;-80
2024/03/02 10:33:21;;;;;;;1.73;1.63;;;24.20;99.90;;;;;;5059194;28;20432;-80
2024/03/02 10:35:51;;;;;;;1.37;1.37;;;24.70;99.90;;;;;;5060361;28;20470;-82
2024/03/02 10:38:21;;;;;;;1.83;1.73;;;25.10;99.90;;;;;;5056849;28;21131;-79
2024/03/02 10:40:49;;;;;;;1.60;1.50;;;25.40;99.90;;;;;;5057178;28;20525;-79
2024/03/02 10:43:19;;;;;;;1.70;1.60;;;26.10;99.90;;;;;;5059922;28;20451;-82
2024/03/02 10:45:51;;;;;;;1.80;1.70;;;26.80;99.90;;;;;;5056626;28;20475;-80
2024/03/02 10:48:21;;;;;;;1.50;1.40;;;28.00;99.90;;;;;;5060920;28;20523;-78
2024/03/02 10:50:50;;;;;;;1.30;1.30;;;28.50;99.90;;;;;;5056940;28;20455;-80
2024/03/02 10:53:20;;;;;;;2.70;1.30;;;30.20;99.90;;;;;;5057238;28;20454;-81
2024/03/02 10:55:53;;;;;;;1.30;1.20;;;30.90;99.90;;;;;;5059311;28;20513;-80
2024/03/02 10:58:21;;;;;;;1.10;1.10;;;30.90;99.90;;;;;;5058489;28;20536;-80
2024/03/02 11:00:50;;;;;;;1.17;1.17;;;31.80;99.90;;;;;;5055294;28;20554;-80
2024/03/02 11:03:19;;;;;;;1.27;1.17;;;30.80;99.90;;;;;;5060530;28;20483;-83
2024/03/02 11:05:48;;;;;;;1.10;1.10;;;30.10;99.90;;;;;;5050676;28;20516;-79
2024/03/02 11:08:21;;;;;;;0.90;0.90;;;30.90;99.90;;;;;;5056843;28;20452;-81
2024/03/02 11:10:52;;;;;;;1.00;1.00;;;30.80;99.90;;;;;;5058194;28;21002;-80
2024/03/02 11:13:25;;;;;;;1.13;1.10;;;30.20;99.90;;;;;;5057951;28;20964;-83
2024/03/02 11:15:56;;;;;;;1.10;1.10;;;31.40;99.90;;;;;;5053936;28;20479;-80
2024/03/02 11:18:25;;;;;;;1.00;1.00;;;31.70;99.90;;;;;;5056825;28;20468;-81
2024/03/02 11:20:54;;;;;;;1.13;1.13;;;31.40;99.90;;;;;;5052945;28;20451;-80
2024/03/02 11:23:33;;;;;;;0.90;0.90;;;30.70;99.90;;;;;;5057760;28;20447;-80
2024/03/02 11:26:19;;;;;;;0.93;0.93;;;31.90;99.90;;;;;;5061670;28;20467;-81
2024/03/02 11:28:48;;;;;;;0.90;0.90;;;32.90;99.90;;;;;;5055984;28;20455;-80
2024/03/02 11:31:16;;;;;;;1.10;1.10;;;32.20;99.90;;;;;;5053005;28;20447;-81
2024/03/02 11:33:44;;;;;;;1.40;1.30;;;32.10;99.90;;;;;;5054018;28;20458;-81
2024/03/02 11:36:12;;;;;;;1.40;1.30;;;31.60;99.90;;;;;;5056164;28;20467;-83
2024/03/02 11:38:45;;;;;;;0.90;0.90;;;30.20;99.90;;;;;;5057319;28;20470;-80
2024/03/02 11:41:14;;;;;;;1.17;1.03;;;27.40;99.90;;;;;;5062680;28;21011;-82
2024/03/02 11:43:45;;;;;;;1.57;0.90;;;24.70;99.90;;;;;;5060821;28;20997;-80
2024/03/02 11:46:16;;;;;;;1.00;1.00;;;23.00;99.90;;;;;;5052327;28;20553;-80
2024/03/02 11:48:44;;;;;;;1.10;1.10;;;21.00;89.70;;;;;;5056694;28;20452;-80
2024/03/02 11:51:12;;;;;;;0.90;0.90;;;20.70;84.20;;;;;;5058797;28;20856;-80
2024/03/02 11:53:43;;;;;;;1.17;1.00;;;20.50;81.20;;;;;;5059005;28;20483;-81
2024/03/02 11:56:14;;;;;;;0.90;0.90;;;19.80;70.70;;;;;;5055725;28;20905;-83
2024/03/02 11:58:43;;;;;;;1.10;1.10;;;19.40;66.30;;;;;;5058974;28;20941;-79
2024/03/02 12:01:13;;;;;;;0.90;0.90;;;19.40;86.50;;;;;;5059680;28;20462;-83
2024/03/02 12:03:41;;;;;;;1.03;1.03;;;19.70;71.90;;;;;;5059132;28;20459;-79
2024/03/02 12:06:10;;;;;;;0.90;0.90;;;19.80;74.40;;;;;;5057742;28;20502;-79
2024/03/02 12:08:39;;;;;;;1.03;1.03;;;19.80;75.70;;;;;;5056573;28;20442;-81
2024/03/02 12:11:09;;;;;;;1.00;1.00;;;19.80;73.80;;;;;;5055752;28;20463;-80
2024/03/02 12:13:37;;;;;;;0.80;0.80;;;19.80;91.40;;;;;;5058033;28;20980;-81
2024/03/02 12:16:06;;;;;;;1.00;1.00;;;19.60;71.00;;;;;;5057470;28;20867;-81
2024/03/02 12:18:35;;;;;;;0.90;0.90;;;19.60;72.70;;;;;;5058323;28;20948;-81
2024/03/02 12:21:06;;;;;;;1.60;1.13;;;19.50;71.30;;;;;;5054805;28;21238;-79
2024/03/02 12:23:35;;;;;;;1.30;0.90;;;19.10;82.50;;;;;;5057545;28;20566;-82
2024/03/02 12:26:03;;;;;;;1.30;1.20;;;18.80;60.50;;;;;;5053232;28;20485;-79
2024/03/02 12:28:34;;;;;;;0.90;0.90;;;18.90;62.00;;;;;;5043671;28;20459;-79
2024/03/02 12:31:03;;;;;;;1.83;1.10;;;18.90;62.70;;;;;;5058226;28;20450;-82
2024/03/02 12:33:31;;;;;;;1.00;1.00;;;18.60;58.10;;;;;;5055671;28;20502;-81
2024/03/02 12:36:00;;;;;;;1.47;1.03;;;18.40;55.70;;;;;;5060076;28;20467;-83
2024/03/02 12:38:29;;;;;;;1.13;1.10;;;18.60;58.60;;;;;;5057176;28;20451;-81
2024/03/02 12:40:57;;;;;;;1.00;1.00;;;18.70;60.40;;;;;;5059928;28;20454;-80
2024/03/02 12:43:30;;;;;;;1.00;1.00;;;18.50;57.80;;;;;;5057164;28;20575;-80
2024/03/02 12:46:00;;;;;;;1.03;1.03;;;18.40;57.60;;;;;;5061072;28;20500;-79
2024/03/02 12:48:28;;;;;;;1.00;1.00;;;18.40;56.20;;;;;;5055681;28;20457;-81
2024/03/02 12:50:56;;;;;;;1.20;1.20;;;18.30;54.80;;;;;;5058591;28;20534;-80
2024/03/02 12:53:25;;;;;;;1.10;1.10;;;18.50;58.70;;;;;;5056643;28;20451;-79
2024/03/02 12:55:54;;;;;;;1.20;1.20;;;18.50;58.80;;;;;;5053950;28;20471;-84
2024/03/02 12:58:23;;;;;;;1.20;1.10;;;18.40;58.80;;;;;;5057523;28;20447;-84
2024/03/02 13:01:08;;;;;;;1.20;1.00;;;18.50;58.80;;;;;;5061390;28;20574;-83
2024/03/02 13:03:38;;;;;;;0.80;0.80;;;18.50;58.20;;;;;;5062570;28;20497;-82
2024/03/02 13:06:07;;;;;;;1.52;1.10;;;18.40;57.00;;;;;;5058050;28;21030;-77
2024/03/02 13:08:36;;;;;;;1.20;1.00;;;18.40;58.20;;;;;;5055345;28;20457;-79